Time;durP1;ratioP1;P1;durP2;ratioP2;P2;SDS_P1;SDS_P2;PMS_P1;PMS_P2;Temp;Humidity;BMP_temperature;BMP_pressure;BME280_temperature;BME280_humidity;BME280_pressure;Samples;Min_cycle;Max_cycle;Signal;HPM_P1;HPM_P2
2023/01/23 00:00:18;;;;;;;;;;;;;;;2.94;100.00;99116.13;5112462;28;19928;-61
2023/01/23 00:02:45;;;;;;;;;;;;;;;2.77;100.00;99117.34;5120516;28;19969;-61
2023/01/23 00:05:11;;;;;;;;;;;;;;;2.72;100.00;99130.28;5120210;28;19959;-61
2023/01/23 00:07:37;;;;;;;;;;;;;;;2.77;100.00;99135.00;5120411;28;19977;-61
2023/01/23 00:10:04;;;;;;;;;;;;;;;2.69;100.00;99130.66;5122015;28;19924;-61
2023/01/23 00:12:30;;;;;;;;;;;;;;;2.71;100.00;99149.75;5105497;28;19991;-62
2023/01/23 00:14:57;;;;;;;;;;;;;;;2.69;100.00;99139.34;5122843;28;19945;-60
2023/01/23 00:17:26;;;;;;;;;;;;;;;3.01;100.00;99134.69;5120103;28;19924;-60
2023/01/23 00:19:53;;;;;;;;;;;;;;;3.30;100.00;99134.63;5120286;28;19979;-61
2023/01/23 00:22:20;;;;;;;;;;;;;;;3.42;100.00;99130.50;5123345;28;19924;-61
2023/01/23 00:24:46;;;;;;;;;;;;;;;3.45;100.00;99130.13;5123467;28;19955;-61
2023/01/23 00:27:12;;;;;;;;;;;;;;;3.55;100.00;99129.81;5120055;28;19950;-61
2023/01/23 00:29:39;;;;;;;;;;;;;;;3.54;100.00;99129.00;5119813;28;20002;-62
2023/01/23 00:32:05;;;;;;;;;;;;;;;3.27;100.00;99116.53;5121685;28;19949;-61
2023/01/23 00:34:33;;;;;;;;;;;;;;;3.37;100.00;99121.50;5122807;28;19923;-61
2023/01/23 00:36:59;;;;;;;;;;;;;;;3.57;100.00;99119.88;5119493;28;19919;-62
2023/01/23 00:39:26;;;;;;;;;;;;;;;3.47;100.00;99117.53;5119788;28;19951;-62
2023/01/23 00:41:52;;;;;;;;;;;;;;;3.68;100.00;99135.22;5119743;28;19924;-62
2023/01/23 00:44:19;;;;;;;;;;;;;;;3.72;100.00;99126.72;5123138;28;19957;-61
2023/01/23 00:46:45;;;;;;;;;;;;;;;3.75;100.00;99128.16;5123066;28;20015;-61
2023/01/23 00:49:12;;;;;;;;;;;;;;;3.40;100.00;99123.78;5119798;28;19924;-61
2023/01/23 00:51:39;;;;;;;;;;;;;;;3.30;100.00;99129.34;5119423;28;19960;-61
2023/01/23 00:54:06;;;;;;;;;;;;;;;3.34;100.00;99125.34;5121627;28;19935;-61
2023/01/23 00:56:32;;;;;;;;;;;;;;;3.49;100.00;99127.91;5122790;28;20394;-61
2023/01/23 00:58:58;;;;;;;;;;;;;;;3.55;100.00;99138.56;5103251;28;19930;-61
2023/01/23 01:01:26;;;;;;;;;;;;;;;3.41;100.00;99143.88;5119108;28;19935;-61
2023/01/23 01:03:53;;;;;;;;;;;;;;;3.43;100.00;99147.16;5119223;28;19950;-61
2023/01/23 01:06:19;;;;;;;;;;;;;;;3.37;100.00;99142.63;5126935;28;19980;-61
2023/01/23 01:08:47;;;;;;;;;;;;;;;3.31;100.00;99149.47;5118977;28;20011;-61
2023/01/23 01:11:13;;;;;;;;;;;;;;;2.98;100.00;99156.16;5122283;28;19928;-61
2023/01/23 01:13:39;;;;;;;;;;;;;;;3.09;100.00;99145.16;5122618;28;19987;-62
2023/01/23 01:16:06;;;;;;;;;;;;;;;2.96;100.00;99145.81;5120265;28;19927;-61
2023/01/23 01:18:33;;;;;;;;;;;;;;;3.07;100.00;99141.88;5119272;28;19963;-61
2023/01/23 01:20:59;;;;;;;;;;;;;;;3.15;100.00;99149.69;5120028;28;20001;-61
2023/01/23 01:23:26;;;;;;;;;;;;;;;3.00;100.00;99154.19;5138645;27;19924;-61
2023/01/23 01:25:57;;;;;;;;;;;;;;;3.06;100.00;99146.34;5122108;28;19924;-61
2023/01/23 01:28:26;;;;;;;;;;;;;;;2.92;100.00;99147.16;5118318;28;19924;-61
2023/01/23 01:30:52;;;;;;;;;;;;;;;3.06;100.00;99151.63;5118882;28;19978;-60
2023/01/23 01:33:18;;;;;;;;;;;;;;;3.12;100.00;99155.34;5122262;28;19977;-61
2023/01/23 01:35:45;;;;;;;;;;;;;;;3.41;100.00;99149.16;5114404;28;19960;-61
2023/01/23 01:38:11;;;;;;;;;;;;;;;3.38;100.00;99157.44;5121634;28;20147;-62
2023/01/23 01:40:37;;;;;;;;;;;;;;;3.16;100.00;99151.31;5104237;28;19943;-62
2023/01/23 01:43:07;;;;;;;;;;;;;;;3.04;100.00;99158.06;5119975;28;19942;-62
2023/01/23 01:45:52;;;;;;;;;;;;;;;2.87;100.00;99139.00;5100529;28;19935;-62
2023/01/23 01:48:21;;;;;;;;;;;;;;;2.56;100.00;99151.56;5110627;28;19946;-62
2023/01/23 01:50:47;;;;;;;;;;;;;;;2.50;100.00;99153.09;5118665;28;19924;-62
2023/01/23 01:53:14;;;;;;;;;;;;;;;2.56;100.00;99151.56;5121730;28;19924;-62
2023/01/23 01:55:40;;;;;;;;;;;;;;;2.44;100.00;99145.09;5122050;28;19992;-61
2023/01/23 01:58:08;;;;;;;;;;;;;;;2.33;100.00;99142.91;5119437;28;20003;-61
2023/01/23 02:00:35;;;;;;;;;;;;;;;2.56;100.00;99146.28;5118437;28;19979;-61
2023/01/23 02:03:02;;;;;;;;;;;;;;;2.55;100.00;99142.00;5119699;28;20604;-61
2023/01/23 02:05:30;;;;;;;;;;;;;;;2.63;100.00;99147.22;5124747;28;19950;-62
2023/01/23 02:07:59;;;;;;;;;;;;;;;2.59;100.00;99138.00;5120706;28;19942;-62
2023/01/23 02:10:25;;;;;;;;;;;;;;;3.04;100.00;99143.06;5118294;28;19948;-61
2023/01/23 02:12:52;;;;;;;;;;;;;;;2.88;100.00;99145.09;5117998;28;20624;-61
2023/01/23 02:15:21;;;;;;;;;;;;;;;2.83;100.00;99145.63;5121401;28;19955;-61
2023/01/23 02:17:48;;;;;;;;;;;;;;;2.93;100.00;99140.91;5121630;28;19959;-61
2023/01/23 02:20:17;;;;;;;;;;;;;;;3.09;100.00;99134.59;5099896;28;19984;-62
2023/01/23 02:22:49;;;;;;;;;;;;;;;3.20;100.00;99134.94;5118338;28;19967;-61
2023/01/23 02:25:19;;;;;;;;;;;;;;;3.32;100.00;99139.72;5121769;28;19930;-62
2023/01/23 02:27:47;;;;;;;;;;;;;;;3.30;100.00;99137.28;5122019;28;19947;-60
2023/01/23 02:30:14;;;;;;;;;;;;;;;3.26;100.00;99142.09;5118696;28;19973;-61
2023/01/23 02:32:41;;;;;;;;;;;;;;;3.05;100.00;99133.31;5118701;28;19983;-61
2023/01/23 02:35:10;;;;;;;;;;;;;;;2.81;100.00;99134.47;5118353;28;19924;-61
2023/01/23 02:37:40;;;;;;;;;;;;;;;2.98;100.00;99138.50;5118828;28;19920;-61
2023/01/23 02:40:07;;;;;;;;;;;;;;;2.82;100.00;99144.00;5120592;28;20007;-60
2023/01/23 02:42:34;;;;;;;;;;;;;;;2.59;100.00;99138.00;5125507;28;19920;-61
2023/01/23 02:45:02;;;;;;;;;;;;;;;2.25;100.00;99135.06;5124641;28;19923;-61
2023/01/23 02:47:28;;;;;;;;;;;;;;;2.21;100.00;99126.72;5122352;28;19927;-61
2023/01/23 02:49:55;;;;;;;;;;;;;;;2.29;100.00;99125.81;5122691;28;19923;-61
2023/01/23 02:52:22;;;;;;;;;;;;;;;2.04;100.00;99127.88;5125729;28;19927;-61
2023/01/23 02:54:49;;;;;;;;;;;;;;;1.91;100.00;99135.56;5125814;28;19934;-61
2023/01/23 02:57:15;;;;;;;;;;;;;;;1.86;100.00;99133.44;5122338;28;19950;-61
2023/01/23 03:02:27;;;;;;;;;;;;;;;2.24;100.00;99128.16;5114821;28;19927;-61
2023/01/23 03:04:53;;;;;;;;;;;;;;;2.16;100.00;99143.06;5125210;28;19923;-61
2023/01/23 03:07:20;;;;;;;;;;;;;;;2.12;100.00;99141.78;5125516;28;20389;-61
2023/01/23 03:09:47;;;;;;;;;;;;;;;2.28;100.00;99129.44;5125422;28;19924;-62
2023/01/23 03:12:14;;;;;;;;;;;;;;;2.71;100.00;99136.56;5121841;28;19924;-61
2023/01/23 03:14:41;;;;;;;;;;;;;;;2.68;100.00;99134.28;5121681;28;19924;-61
2023/01/23 03:17:09;;;;;;;;;;;;;;;2.93;100.00;99140.91;5123876;28;20007;-61
2023/01/23 03:19:38;;;;;;;;;;;;;;;2.94;100.00;99134.59;5124953;28;20481;-61
2023/01/23 03:22:04;;;;;;;;;;;;;;;2.93;100.00;99132.97;5122927;28;19931;-61
2023/01/23 03:24:30;;;;;;;;;;;;;;;2.68;100.00;99136.91;5121523;28;19920;-61
2023/01/23 03:26:57;;;;;;;;;;;;;;;2.89;100.00;99128.25;5122597;28;19931;-61
2023/01/23 03:32:10;;;;;;;;;;;;;;;3.20;100.00;99132.28;5122230;28;19924;-61
2023/01/23 03:34:38;;;;;;;;;;;;;;;3.38;100.00;99129.22;5121202;28;19943;-61
2023/01/23 03:37:06;;;;;;;;;;;;;;;3.23;100.00;99126.63;5121142;28;19991;-61
2023/01/23 03:42:17;;;;;;;;;;;;;;;3.17;100.00;99123.91;5128973;27;19924;-61
2023/01/23 03:44:43;;;;;;;;;;;;;;;2.90;100.00;99122.81;5103212;28;19932;-62
2023/01/23 03:47:10;;;;;;;;;;;;;;;3.05;100.00;99128.88;5123738;28;19939;-62
2023/01/23 03:49:37;;;;;;;;;;;;;;;3.19;100.00;99143.00;5124825;28;19924;-61
2023/01/23 03:52:04;;;;;;;;;;;;;;;3.04;100.00;99132.50;5122070;28;20459;-61
2023/01/23 03:54:30;;;;;;;;;;;;;;;3.06;100.00;99135.78;5120979;28;20540;-61
2023/01/23 03:56:57;;;;;;;;;;;;;;;3.18;100.00;99123.75;5121960;28;19920;-61
2023/01/23 03:59:23;;;;;;;;;;;;;;;3.32;100.00;99124.69;5124683;28;19982;-61
2023/01/23 04:01:50;;;;;;;;;;;;;;;3.38;100.00;99138.97;5124557;28;19945;-61
2023/01/23 04:04:16;;;;;;;;;;;;;;;3.37;100.00;99147.91;5112669;28;20665;-62
2023/01/23 04:06:44;;;;;;;;;;;;;;;3.14;100.00;99153.31;5119783;28;19974;-62
2023/01/23 04:09:11;;;;;;;;;;;;;;;3.18;100.00;99151.97;5121638;28;19923;-62
2023/01/23 04:11:38;;;;;;;;;;;;;;;3.26;100.00;99147.38;5121066;28;19987;-62
2023/01/23 04:14:04;;;;;;;;;;;;;;;3.26;100.00;99144.75;5122367;28;19924;-62
2023/01/23 04:16:30;;;;;;;;;;;;;;;2.84;100.00;99149.09;5124343;28;19928;-62
2023/01/23 04:18:57;;;;;;;;;;;;;;;2.48;100.00;99154.28;5123048;28;19947;-62
2023/01/23 04:21:24;;;;;;;;;;;;;;;2.35;100.00;99139.09;5120483;28;19991;-63
2023/01/23 04:23:52;;;;;;;;;;;;;;;2.26;100.00;99147.28;5120843;28;19946;-60
2023/01/23 04:26:18;;;;;;;;;;;;;;;2.22;100.00;99140.72;5112437;28;19974;-60
2023/01/23 04:28:44;;;;;;;;;;;;;;;1.98;100.00;99149.66;5102603;28;19928;-60
2023/01/23 04:31:11;;;;;;;;;;;;;;;1.82;100.00;99144.53;5123145;28;19978;-60
2023/01/23 04:33:37;;;;;;;;;;;;;;;1.92;100.00;99140.63;5123656;28;19924;-60
2023/01/23 04:36:05;;;;;;;;;;;;;;;1.87;100.00;99143.00;5114853;28;19920;-60
2023/01/23 04:38:32;;;;;;;;;;;;;;;2.27;100.00;99148.88;5123267;28;19938;-60
2023/01/23 04:41:00;;;;;;;;;;;;;;;2.17;100.00;99147.31;5122040;28;19931;-60
2023/01/23 04:43:26;;;;;;;;;;;;;;;2.22;100.00;99146.81;5119543;28;19931;-60
2023/01/23 04:45:54;;;;;;;;;;;;;;;2.53;100.00;99144.00;5119797;28;19939;-60
2023/01/23 04:48:20;;;;;;;;;;;;;;;2.64;100.00;99151.47;5123393;28;19919;-61
2023/01/23 04:50:47;;;;;;;;;;;;;;;2.63;100.00;99147.22;5123114;28;19938;-61
2023/01/23 04:53:13;;;;;;;;;;;;;;;2.85;100.00;99148.09;5119538;28;19924;-61
2023/01/23 04:55:40;;;;;;;;;;;;;;;2.96;100.00;99151.09;5119630;28;19934;-61
2023/01/23 04:58:10;;;;;;;;;;;;;;;3.13;100.00;99149.88;5121451;28;20567;-61
2023/01/23 05:00:36;;;;;;;;;;;;;;;3.11;100.00;99143.97;5123014;28;19931;-61
2023/01/23 05:03:03;;;;;;;;;;;;;;;3.08;100.00;99148.78;5120450;28;19924;-61
2023/01/23 05:05:29;;;;;;;;;;;;;;;3.14;100.00;99151.50;5115626;28;19948;-61
2023/01/23 05:07:55;;;;;;;;;;;;;;;3.04;100.00;99143.06;5119632;28;19924;-61
2023/01/23 05:10:22;;;;;;;;;;;;;;;2.99;100.00;99156.00;5122659;28;19962;-61
2023/01/23 05:12:48;;;;;;;;;;;;;;;3.08;100.00;99156.72;5122631;28;20005;-61
2023/01/23 05:15:16;;;;;;;;;;;;;;;2.76;100.00;99159.72;5119278;28;19992;-61
2023/01/23 05:17:42;;;;;;;;;;;;;;;2.69;100.00;99155.19;5119000;28;19931;-60
2023/01/23 05:20:09;;;;;;;;;;;;;;;2.84;100.00;99147.28;5121395;28;19987;-60
2023/01/23 05:22:36;;;;;;;;;;;;;;;2.76;100.00;99157.09;5122396;28;19978;-60
2023/01/23 05:25:03;;;;;;;;;;;;;;;2.86;100.00;99161.09;5120570;28;19931;-61
2023/01/23 05:27:29;;;;;;;;;;;;;;;2.96;100.00;99160.81;5118790;28;19935;-61
2023/01/23 05:29:56;;;;;;;;;;;;;;;2.99;100.00;99160.44;5119360;28;19924;-60
2023/01/23 05:32:23;;;;;;;;;;;;;;;2.69;100.00;99160.47;5122227;28;19973;-60
2023/01/23 05:34:50;;;;;;;;;;;;;;;2.25;100.00;99166.72;5119297;28;19932;-60
2023/01/23 05:37:16;;;;;;;;;;;;;;;2.18;100.00;99177.97;5110335;28;19970;-60
2023/01/23 05:39:42;;;;;;;;;;;;;;;2.40;100.00;99162.28;5118654;28;19924;-60
2023/01/23 05:42:09;;;;;;;;;;;;;;;2.45;100.00;99179.19;5120838;28;19967;-61
2023/01/23 05:44:35;;;;;;;;;;;;;;;2.54;100.00;99180.72;5122019;28;20041;-62
2023/01/23 05:47:01;;;;;;;;;;;;;;;2.32;100.00;99188.72;5102056;28;19920;-61
2023/01/23 05:49:29;;;;;;;;;;;;;;;2.33;100.00;99190.34;5118444;28;19931;-61
2023/01/23 05:51:55;;;;;;;;;;;;;;;2.38;100.00;99194.09;5100941;28;19924;-61
2023/01/23 05:54:22;;;;;;;;;;;;;;;2.20;100.00;99190.94;5121725;28;19924;-62
2023/01/23 05:56:48;;;;;;;;;;;;;;;2.35;100.00;99201.56;5121821;28;19924;-61
2023/01/23 05:59:15;;;;;;;;;;;;;;;2.39;100.00;99205.44;5118342;28;19935;-61
2023/01/23 06:01:41;;;;;;;;;;;;;;;2.57;100.00;99203.28;5118289;28;19928;-61
2023/01/23 06:04:07;;;;;;;;;;;;;;;2.18;100.00;99217.50;5102191;28;19919;-61
2023/01/23 06:06:35;;;;;;;;;;;;;;;2.34;100.00;99219.19;5124131;28;20411;-61
2023/01/23 06:09:02;;;;;;;;;;;;;;;2.36;100.00;99217.16;5101618;28;19978;-61
2023/01/23 06:11:28;;;;;;;;;;;;;;;1.96;100.00;99210.44;5121651;28;19955;-61
2023/01/23 06:13:55;;;;;;;;;;;;;;;2.04;100.00;99222.72;5121181;28;19923;-62
2023/01/23 06:16:21;;;;;;;;;;;;;;;1.81;100.00;99222.72;5117908;28;19920;-60
2023/01/23 06:18:47;;;;;;;;;;;;;;;1.59;100.00;99231.41;5118090;28;19963;-62
2023/01/23 06:21:16;;;;;;;;;;;;;;;1.40;100.00;99223.94;5121225;28;20477;-61
2023/01/23 06:23:44;;;;;;;;;;;;;;;1.23;100.00;99222.41;5121483;28;19923;-61
2023/01/23 06:26:11;;;;;;;;;;;;;;;1.48;100.00;99237.09;5118984;28;19966;-61
2023/01/23 06:28:37;;;;;;;;;;;;;;;1.38;100.00;99239.09;5118186;28;19931;-61
2023/01/23 06:31:05;;;;;;;;;;;;;;;1.36;100.00;99241.09;5119935;28;19978;-61
2023/01/23 06:33:31;;;;;;;;;;;;;;;1.36;100.00;99243.72;5121734;28;19981;-61
2023/01/23 06:35:58;;;;;;;;;;;;;;;1.57;100.00;99236.03;5112932;28;19931;-61
2023/01/23 06:38:25;;;;;;;;;;;;;;;1.56;100.00;99247.56;5121618;28;19992;-62
2023/01/23 06:40:53;;;;;;;;;;;;;;;1.35;100.00;99253.44;5103367;28;19924;-61
2023/01/23 06:43:19;;;;;;;;;;;;;;;1.37;100.00;99261.16;5099971;28;19983;-61
2023/01/23 06:45:46;;;;;;;;;;;;;;;1.66;100.00;99261.34;5118235;28;19924;-61
2023/01/23 06:48:12;;;;;;;;;;;;;;;1.97;100.00;99262.13;5121003;28;19924;-61
2023/01/23 06:50:39;;;;;;;;;;;;;;;2.13;100.00;99264.66;5121515;28;19928;-61
2023/01/23 06:53:05;;;;;;;;;;;;;;;2.13;100.00;99284.91;5119350;28;20037;-61
2023/01/23 06:55:32;;;;;;;;;;;;;;;2.01;100.00;99278.41;5118017;28;19943;-62
2023/01/23 06:58:00;;;;;;;;;;;;;;;1.77;100.00;99279.38;5118947;28;20048;-60
2023/01/23 07:00:26;;;;;;;;;;;;;;;2.05;100.00;99269.97;5121395;28;20041;-61
2023/01/23 07:02:57;;;;;;;;;;;;;;;1.82;100.00;99271.78;5120960;28;19924;-61
2023/01/23 07:05:24;;;;;;;;;;;;;;;1.60;100.00;99275.19;5114487;28;19950;-61
2023/01/23 07:07:51;;;;;;;;;;;;;;;1.71;100.00;99268.69;5117717;28;19977;-61
2023/01/23 07:10:17;;;;;;;;;;;;;;;1.59;100.00;99261.19;5109693;28;19951;-61
2023/01/23 07:12:43;;;;;;;;;;;;;;;1.85;100.00;99271.44;5117756;28;19931;-60
2023/01/23 07:15:11;;;;;;;;;;;;;;;1.51;100.00;99279.69;5120414;28;19984;-60
2023/01/23 07:17:38;;;;;;;;;;;;;;;1.27;100.00;99278.97;5121461;28;19923;-60
2023/01/23 07:20:05;;;;;;;;;;;;;;;1.33;100.00;99271.19;5101267;28;19931;-60
2023/01/23 07:22:31;;;;;;;;;;;;;;;1.59;100.00;99279.63;5117708;28;19920;-60
2023/01/23 07:24:57;;;;;;;;;;;;;;;1.60;100.00;99283.91;5118519;28;19948;-60
2023/01/23 07:27:24;;;;;;;;;;;;;;;1.58;100.00;99266.63;5122494;28;19923;-60
2023/01/23 07:29:50;;;;;;;;;;;;;;;1.75;100.00;99259.47;5124506;28;19960;-60
2023/01/23 07:32:18;;;;;;;;;;;;;;;1.92;100.00;99266.28;5094510;28;19965;-60
2023/01/23 07:34:44;;;;;;;;;;;;;;;1.75;100.00;99270.84;5120794;28;19935;-60
2023/01/23 07:37:10;;;;;;;;;;;;;;;1.97;100.00;99274.47;5120601;28;19928;-60
2023/01/23 07:39:37;;;;;;;;;;;;;;;1.80;100.00;99272.94;5120864;28;19970;-60
2023/01/23 07:42:03;;;;;;;;;;;;;;;2.06;100.00;99282.16;5122276;28;19924;-60
2023/01/23 07:44:30;;;;;;;;;;;;;;;2.21;100.00;99292.75;5105923;28;20544;-61
2023/01/23 07:46:56;;;;;;;;;;;;;;;2.07;100.00;99290.88;5123485;28;19959;-60
2023/01/23 07:49:24;;;;;;;;;;;;;;;2.13;100.00;99292.81;5120718;28;20456;-61
2023/01/23 07:51:50;;;;;;;;;;;;;;;2.31;100.00;99290.72;5120634;28;19920;-60
2023/01/23 07:54:16;;;;;;;;;;;;;;;2.30;100.00;99296.13;5112228;28;19942;-60
2023/01/23 07:56:43;;;;;;;;;;;;;;;2.10;100.00;99291.34;5120513;28;19936;-61
2023/01/23 07:59:11;;;;;;;;;;;;;;;2.04;100.00;99301.78;5123012;28;19974;-60
2023/01/23 08:01:37;;;;;;;;;;;;;;;2.17;100.00;99291.47;5123980;28;19920;-60
2023/01/23 08:04:04;;;;;;;;;;;;;;;2.02;100.00;99294.03;5122400;28;19951;-60
2023/01/23 08:06:32;;;;;;;;;;;;;;;2.12;100.00;99305.19;5117349;28;19935;-61
2023/01/23 08:08:59;;;;;;;;;;;;;;;2.32;100.00;99315.25;5122855;28;20348;-60
2023/01/23 08:11:26;;;;;;;;;;;;;;;2.50;100.00;99310.50;5102228;28;19935;-61
2023/01/23 08:13:53;;;;;;;;;;;;;;;2.63;100.00;99314.16;5120490;28;19928;-60
2023/01/23 08:16:19;;;;;;;;;;;;;;;2.77;100.00;99306.47;5123883;28;19966;-60
2023/01/23 08:18:46;;;;;;;;;;;;;;;2.81;100.00;99308.59;5123757;28;19984;-60
2023/01/23 08:21:12;;;;;;;;;;;;;;;2.93;100.00;99307.13;5120836;28;19959;-60
2023/01/23 08:23:41;;;;;;;;;;;;;;;2.80;100.00;99314.03;5101999;28;19924;-60
2023/01/23 08:26:08;;;;;;;;;;;;;;;2.57;100.00;99314.03;5122706;28;19935;-61
2023/01/23 08:28:35;;;;;;;;;;;;;;;2.45;100.00;99315.47;5124058;28;19920;-61
2023/01/23 08:31:02;;;;;;;;;;;;;;;2.04;100.00;99313.13;5122688;28;19920;-61
2023/01/23 08:33:28;;;;;;;;;;;;;;;2.01;100.00;99313.47;5120643;28;19950;-61
2023/01/23 08:35:56;;;;;;;;;;;;;;;1.90;100.00;99311.25;5117981;28;19924;-61
2023/01/23 08:38:23;;;;;;;;;;;;;;;1.97;100.00;99312.19;5124201;28;19961;-61
2023/01/23 08:40:51;;;;;;;;;;;;;;;1.78;100.00;99317.06;5124079;28;19988;-61
2023/01/23 08:43:19;;;;;;;;;;;;;;;1.85;100.00;99318.03;5112196;28;19963;-61
2023/01/23 08:45:48;;;;;;;;;;;;;;;1.92;100.00;99311.09;5120566;28;19935;-61
2023/01/23 08:48:14;;;;;;;;;;;;;;;1.88;100.00;99315.03;5123332;28;19935;-61
2023/01/23 08:50:41;;;;;;;;;;;;;;;1.95;100.00;99308.09;5123737;28;19919;-61
2023/01/23 08:53:07;;;;;;;;;;;;;;;1.79;100.00;99310.81;5103284;28;20405;-61
2023/01/23 08:55:34;;;;;;;;;;;;;;;1.91;100.00;99312.88;5120429;28;20011;-61
2023/01/23 08:58:03;;;;;;;;;;;;;;;2.09;100.00;99307.34;5121283;28;19928;-61
2023/01/23 09:00:29;;;;;;;;;;;;;;;1.94;100.00;99309.09;5123423;28;19950;-61
2023/01/23 09:02:55;;;;;;;;;;;;;;;1.91;100.00;99310.25;5122731;28;19931;-61
2023/01/23 09:05:22;;;;;;;;;;;;;;;1.89;100.00;99316.69;5116660;28;19935;-61
2023/01/23 09:07:48;;;;;;;;;;;;;;;1.87;100.00;99306.31;5120122;28;19979;-61
2023/01/23 09:10:14;;;;;;;;;;;;;;;1.85;100.00;99308.31;5122780;28;19924;-60
2023/01/23 09:12:42;;;;;;;;;;;;;;;1.77;100.00;99308.34;5123038;28;19927;-61
2023/01/23 09:15:10;;;;;;;;;;;;;;;2.01;100.00;99299.50;5120766;28;19924;-61
2023/01/23 09:17:36;;;;;;;;;;;;;;;1.86;100.00;99317.84;5119552;28;20049;-61
2023/01/23 09:20:04;;;;;;;;;;;;;;;1.93;100.00;99310.88;5120805;28;19924;-61
2023/01/23 09:22:31;;;;;;;;;;;;;;;2.03;100.00;99310.66;5122775;28;19927;-61
2023/01/23 09:24:57;;;;;;;;;;;;;;;2.26;100.00;99306.22;5121974;28;20291;-61
2023/01/23 09:27:24;;;;;;;;;;;;;;;2.14;100.00;99312.88;5119394;28;19946;-61
2023/01/23 09:29:50;;;;;;;;;;;;;;;2.07;100.00;99315.41;5119465;28;19931;-61
2023/01/23 09:32:18;;;;;;;;;;;;;;;1.99;100.00;99312.81;5110674;28;19983;-61
2023/01/23 09:34:47;;;;;;;;;;;;;;;2.26;100.00;99308.06;5118966;28;19924;-61
2023/01/23 09:37:14;;;;;;;;;;;;;;;2.20;100.00;99311.41;5118873;28;19983;-62
2023/01/23 09:39:42;;;;;;;;;;;;;;;2.32;100.00;99300.22;5119109;28;19924;-61
2023/01/23 09:42:15;;;;;;;;;;;;;;;2.22;100.00;99304.13;5121370;28;19926;-62
2023/01/23 09:44:44;;;;;;;;;;;;;;;2.29;100.00;99308.50;5122587;28;19958;-62
2023/01/23 09:47:14;;;;;;;;;;;;;;;2.29;100.00;99297.94;5119791;28;19983;-62
2023/01/23 09:49:46;;;;;;;;;;;;;;;2.43;100.00;99304.28;5118548;28;19959;-62
2023/01/23 09:52:15;;;;;;;;;;;;;;;2.35;100.00;99296.44;5121696;28;19940;-61
2023/01/23 09:54:43;;;;;;;;;;;;;;;2.44;100.00;99298.03;5122419;28;19984;-61
2023/01/23 09:57:13;;;;;;;;;;;;;;;2.38;100.00;99296.09;5119718;28;19924;-61
2023/01/23 09:59:40;;;;;;;;;;;;;;;2.50;100.00;99292.88;5118792;28;19979;-61
2023/01/23 10:02:13;;;;;;;;;;;;;;;2.55;100.00;99289.69;5120741;28;19931;-61
2023/01/23 10:04:39;;;;;;;;;;;;;;;2.46;100.00;99290.75;5120622;28;19967;-61
2023/01/23 10:07:13;;;;;;;;;;;;;;;2.51;100.00;99286.56;5118432;28;19923;-61
2023/01/23 10:09:47;;;;;;;;;;;;;;;2.49;100.00;99285.94;5118653;28;19939;-61
2023/01/23 10:12:17;;;;;;;;;;;;;;;2.51;100.00;99273.38;5121337;28;20023;-60
2023/01/23 10:15:01;;;;;;;;;;;;;;;2.53;100.00;99274.06;5122010;28;19935;-61
2023/01/23 10:17:29;;;;;;;;;;;;;;;2.40;100.00;99275.63;5111612;28;19963;-61
2023/01/23 10:20:11;;;;;;;;;;;;;;;2.43;100.00;99270.00;5119097;28;19930;-61
2023/01/23 10:22:41;;;;;;;;;;;;;;;2.50;100.00;99270.94;5099048;28;19934;-61
2023/01/23 10:25:14;;;;;;;;;;;;;;;2.68;100.00;99266.16;5119889;28;20385;-61
2023/01/23 10:27:42;;;;;;;;;;;;;;;2.72;100.00;99264.81;5118982;28;19924;-61
2023/01/23 10:30:16;;;;;;;;;;;;;;;2.72;100.00;99270.09;5120798;28;19924;-61
2023/01/23 10:32:46;;;;;;;;;;;;;;;2.65;100.00;99266.53;5122102;28;19923;-61
2023/01/23 10:35:16;;;;;;;;;;;;;;;2.72;100.00;99262.97;5115516;28;19924;-61
2023/01/23 10:37:46;;;;;;;;;;;;;;;2.75;100.00;99267.09;5118525;28;19959;-61
2023/01/23 10:40:13;;;;;;;;;;;;;;;2.68;100.00;99263.53;5121132;28;19928;-61
2023/01/23 10:42:40;;;;;;;;;;;;;;;2.65;100.00;99256.78;5121803;28;20353;-61
2023/01/23 10:45:07;;;;;;;;;;;;;;;2.66;100.00;99244.44;5119637;28;19931;-61
2023/01/23 10:47:35;;;;;;;;;;;;;;;2.64;100.00;99251.69;5117995;28;19975;-61
2023/01/23 10:50:01;;;;;;;;;;;;;;;2.65;100.00;99254.16;5118983;28;19924;-61
2023/01/23 10:52:29;;;;;;;;;;;;;;;2.67;100.00;99251.31;5121450;28;19924;-61
2023/01/23 10:54:57;;;;;;;;;;;;;;;2.68;100.00;99248.53;5120680;28;19954;-61
2023/01/23 10:57:25;;;;;;;;;;;;;;;2.70;100.00;99243.88;5117621;28;20512;-62
2023/01/23 10:59:54;;;;;;;;;;;;;;;2.77;100.00;99232.59;5117962;28;19947;-62
2023/01/23 11:02:25;;;;;;;;;;;;;;;2.85;100.00;99221.97;5111731;28;19989;-62
2023/01/23 11:04:52;;;;;;;;;;;;;;;2.77;100.00;99227.31;5125498;28;19949;-61
2023/01/23 11:07:19;;;;;;;;;;;;;;;2.82;100.00;99236.31;5125477;28;19924;-61
2023/01/23 11:09:47;;;;;;;;;;;;;;;2.93;100.00;99229.78;5125412;28;19997;-61
2023/01/23 11:12:17;;;;;;;;;;;;;;;2.85;100.00;99222.78;5122168;28;19988;-61
2023/01/23 11:14:44;;;;;;;;;;;;;;;2.85;100.00;99221.97;5121533;28;19991;-62
2023/01/23 11:17:15;;;;;;;;;;;;;;;2.92;100.00;99213.13;5124095;28;19927;-62
2023/01/23 11:19:42;;;;;;;;;;;;;;;2.91;100.00;99216.78;5124920;28;19931;-62
2023/01/23 11:22:22;;;;;;;;;;;;;;;2.87;100.00;99204.13;5122458;28;19928;-62
2023/01/23 11:24:49;;;;;;;;;;;;;;;2.91;100.00;99200.94;5121395;28;19980;-62
2023/01/23 11:27:19;;;;;;;;;;;;;;;2.94;100.00;99197.13;5124722;28;19924;-61
2023/01/23 11:29:54;;;;;;;;;;;;;;;2.82;100.00;99195.94;5124878;28;19926;-61
2023/01/23 11:32:21;;;;;;;;;;;;;;;2.76;100.00;99197.47;5113231;28;19931;-61
2023/01/23 11:34:49;;;;;;;;;;;;;;;2.76;100.00;99188.75;5123510;28;19931;-61
2023/01/23 11:37:17;;;;;;;;;;;;;;;2.71;100.00;99184.03;5124816;28;19996;-61
2023/01/23 11:39:47;;;;;;;;;;;;;;;2.69;100.00;99175.50;5124845;28;19932;-61
2023/01/23 11:42:14;;;;;;;;;;;;;;;2.66;100.00;99178.50;5121686;28;20070;-61
2023/01/23 11:44:42;;;;;;;;;;;;;;;2.80;100.00;99175.03;5121203;28;19920;-61
2023/01/23 11:47:25;;;;;;;;;;;;;;;2.80;100.00;99172.38;5123236;28;19930;-61
2023/01/23 11:50:09;;;;;;;;;;;;;;;2.82;100.00;99177.47;5124658;28;19962;-61
2023/01/23 11:52:41;;;;;;;;;;;;;;;2.80;100.00;99161.84;5115222;28;20038;-60
2023/01/23 11:55:32;;;;;;;;;;;;;;;2.78;100.00;99173.56;5123039;28;20027;-61
2023/01/23 11:58:02;;;;;;;;;;;;;;;2.99;100.00;99156.00;5123694;28;19986;-61
2023/01/23 12:00:34;;;;;;;;;;;;;;;2.87;100.00;99162.75;5120752;28;19931;-61
2023/01/23 12:03:19;;;;;;;;;;;;;;;2.84;100.00;99167.56;5122014;28;19956;-61
2023/01/23 12:06:00;;;;;;;;;;;;;;;2.86;100.00;99169.00;5127596;28;19965;-61
2023/01/23 12:08:32;;;;;;;;;;;;;;;2.90;100.00;99165.00;5091234;28;19964;-61
2023/01/23 12:11:09;;;;;;;;;;;;;;;3.04;100.00;99158.06;5119073;28;19968;-61
2023/01/23 12:13:50;;;;;;;;;;;;;;;2.99;100.00;99163.91;5123809;28;19971;-61
2023/01/23 12:16:21;;;;;;;;;;;;;;;3.05;100.00;99163.19;5119044;28;19920;-61
2023/01/23 12:18:52;;;;;;;;;;;;;;;3.09;100.00;99169.72;5120363;28;19924;-61
2023/01/23 12:21:19;;;;;;;;;;;;;;;3.11;100.00;99174.81;5112395;28;19966;-60
2023/01/23 12:23:56;;;;;;;;;;;;;;;3.08;100.00;99167.25;5120696;28;19924;-61
2023/01/23 12:26:24;;;;;;;;;;;;;;;3.19;100.00;99151.75;5112842;28;19956;-61
2023/01/23 12:28:57;;;;;;;;;;;;;;;3.30;100.00;99152.28;5120527;28;19924;-61
2023/01/23 12:31:32;;;;;;;;;;;;;;;3.31;100.00;99156.56;5112907;28;19984;-62
2023/01/23 12:34:08;;;;;;;;;;;;;;;3.30;100.00;99149.66;5121136;28;19932;-61
2023/01/23 12:36:46;;;;;;;;;;;;;;;3.25;100.00;99151.00;5120610;28;19955;-62
2023/01/23 12:39:21;;;;;;;;;;;;;;;3.32;100.00;99150.28;5121047;28;19950;-61
2023/01/23 12:41:49;;;;;;;;;;;;;;;3.30;100.00;99132.00;5102162;28;20026;-61
2023/01/23 12:44:18;;;;;;;;;;;;;;;3.31;100.00;99131.00;5123193;28;19995;-61
2023/01/23 12:46:51;;;;;;;;;;;;;;;3.27;100.00;99127.09;5123372;28;20653;-61
2023/01/23 12:49:21;;;;;;;;;;;;;;;3.16;100.00;99140.75;5111302;28;19924;-60
2023/01/23 12:51:52;;;;;;;;;;;;;;;3.19;100.00;99124.53;5119651;28;19992;-61
2023/01/23 12:54:24;;;;;;;;;;;;;;;3.23;100.00;99124.00;5111509;28;19931;-61
2023/01/23 12:56:50;;;;;;;;;;;;;;;3.33;100.00;99131.63;5119735;28;19954;-61
2023/01/23 12:59:21;;;;;;;;;;;;;;;3.24;100.00;99130.91;5123041;28;19931;-62